createdAt,value
2023-03-24T00:02:10.650Z,2.70
2023-03-24T00:04:37.870Z,2.40
2023-03-24T00:07:05.048Z,2.63
2023-03-24T00:09:32.159Z,2.50
2023-03-24T00:11:59.343Z,2.50
2023-03-24T00:14:27.820Z,2.20
2023-03-24T00:16:54.892Z,2.40
2023-03-24T00:19:22.032Z,2.10
2023-03-24T00:21:49.159Z,2.60
2023-03-24T00:24:16.376Z,2.03
2023-03-24T00:26:43.584Z,2.40
2023-03-24T00:29:11.523Z,2.27
2023-03-24T00:31:40.610Z,2.10
2023-03-24T00:34:08.090Z,2.07
2023-03-24T00:36:35.882Z,2.67
2023-03-24T00:39:03.652Z,2.30
2023-03-24T00:41:31.030Z,2.27
2023-03-24T00:43:58.992Z,2.60
2023-03-24T00:46:26.578Z,2.43
2023-03-24T00:48:55.194Z,2.30
2023-03-24T00:51:22.299Z,3.20
2023-03-24T00:53:49.400Z,2.83
2023-03-24T00:56:16.547Z,2.23
2023-03-24T00:58:43.633Z,2.50
2023-03-24T01:01:11.355Z,2.50
2023-03-24T01:03:38.518Z,2.70
2023-03-24T01:06:07.307Z,2.90
2023-03-24T01:08:34.528Z,2.73
2023-03-24T01:11:01.827Z,2.50
2023-03-24T01:13:29.837Z,2.73
2023-03-24T01:15:57.452Z,2.60
2023-03-24T01:18:24.569Z,2.73
2023-03-24T01:20:51.884Z,2.80
2023-03-24T01:23:21.184Z,3.00
2023-03-24T01:25:48.447Z,2.63
2023-03-24T01:28:17.022Z,3.40
2023-03-24T01:30:44.706Z,2.50
2023-03-24T01:33:12.204Z,3.80
2023-03-24T01:35:39.388Z,3.03
2023-03-24T01:38:07.500Z,2.97
2023-03-24T01:40:37.162Z,3.60
2023-03-24T01:43:04.733Z,3.40
2023-03-24T01:45:50.044Z,4.40
2023-03-24T01:48:19.258Z,3.60
2023-03-24T01:50:49.677Z,3.50
2023-03-24T01:53:16.759Z,2.87
2023-03-24T01:55:47.825Z,3.23
2023-03-24T01:58:17.835Z,3.10
2023-03-24T02:00:53.800Z,3.37
2023-03-24T02:03:53.275Z,3.63
2023-03-24T02:06:22.154Z,3.13
2023-03-24T02:08:52.101Z,4.73
2023-03-24T02:11:21.848Z,3.47
2023-03-24T02:13:53.617Z,3.37
2023-03-24T02:16:26.243Z,3.73
2023-03-24T02:18:58.268Z,2.93
2023-03-24T02:21:34.185Z,4.07
2023-03-24T02:24:16.144Z,3.50
2023-03-24T02:26:52.798Z,3.40
2023-03-24T02:29:40.822Z,3.03
2023-03-24T02:32:15.111Z,3.30
2023-03-24T02:34:55.929Z,3.20
2023-03-24T02:37:31.864Z,3.00
2023-03-24T02:40:08.747Z,3.50
2023-03-24T02:42:41.834Z,3.70
2023-03-24T02:45:16.209Z,3.20
2023-03-24T02:47:46.877Z,3.77
2023-03-24T02:50:17.555Z,3.60
2023-03-24T02:52:46.542Z,3.40
2023-03-24T02:55:16.896Z,3.30
2023-03-24T02:57:46.214Z,3.40
2023-03-24T03:00:22.879Z,3.90
2023-03-24T03:03:31.838Z,3.43
2023-03-24T03:06:01.749Z,3.23
2023-03-24T03:08:30.081Z,3.50
2023-03-24T03:10:59.863Z,3.17
2023-03-24T03:13:29.026Z,3.70
2023-03-24T03:15:58.724Z,3.40
2023-03-24T03:18:28.796Z,3.03
2023-03-24T03:20:59.424Z,3.10
2023-03-24T03:23:29.754Z,2.90
2023-03-24T03:25:59.032Z,3.40
2023-03-24T03:28:28.833Z,3.43
2023-03-24T03:30:57.712Z,3.60
2023-03-24T03:33:26.785Z,2.77
2023-03-24T03:35:57.141Z,2.70
2023-03-24T03:38:26.205Z,2.80
2023-03-24T03:40:55.258Z,2.73
2023-03-24T03:43:26.068Z,3.60
2023-03-24T03:45:55.127Z,2.20
2023-03-24T03:48:28.016Z,2.23
2023-03-24T03:51:10.250Z,2.47
2023-03-24T03:53:44.205Z,2.50
2023-03-24T03:56:11.529Z,3.17
2023-03-24T03:58:47.350Z,2.40
2023-03-24T04:01:16.952Z,2.80
2023-03-24T04:04:11.047Z,2.40
2023-03-24T04:07:03.988Z,2.80
2023-03-24T04:09:36.649Z,2.40
2023-03-24T04:12:15.784Z,2.67
2023-03-24T04:15:09.072Z,3.10
2023-03-24T04:18:07.227Z,2.63
2023-03-24T04:20:49.221Z,2.83
2023-03-24T04:23:23.144Z,2.53
2023-03-24T04:25:52.914Z,3.30
2023-03-24T04:28:22.857Z,2.90
2023-03-24T04:30:51.744Z,3.00
2023-03-24T04:33:25.953Z,4.10
2023-03-24T04:35:56.002Z,3.10
2023-03-24T04:38:37.631Z,3.13
2023-03-24T04:41:18.727Z,2.97
2023-03-24T04:43:54.467Z,3.20
2023-03-24T04:46:21.976Z,2.73
2023-03-24T04:49:01.801Z,2.90
2023-03-24T04:51:34.802Z,3.07
2023-03-24T04:54:08.118Z,3.50
2023-03-24T04:56:41.581Z,3.50
2023-03-24T04:59:27.320Z,3.40
2023-03-24T05:01:55.369Z,3.83
2023-03-24T05:04:58.904Z,3.37
2023-03-24T05:07:34.682Z,3.23
2023-03-24T05:10:05.894Z,3.80
2023-03-24T05:12:39.157Z,3.20
2023-03-24T05:15:18.040Z,2.87
2023-03-24T05:17:47.335Z,2.60
2023-03-24T05:20:16.144Z,2.50
2023-03-24T05:22:47.498Z,2.60
2023-03-24T05:25:14.837Z,2.17
2023-03-24T05:27:42.206Z,2.77
2023-03-24T05:30:19.117Z,2.27
2023-03-24T05:32:47.458Z,2.07
2023-03-24T05:35:16.175Z,1.90
2023-03-24T05:37:43.649Z,2.07
2023-03-24T05:40:11.749Z,1.40
2023-03-24T05:42:49.764Z,1.67
2023-03-24T05:45:17.079Z,1.70
2023-03-24T05:47:44.195Z,1.70
2023-03-24T05:50:11.660Z,1.60
2023-03-24T05:52:40.142Z,1.90
2023-03-24T05:55:25.197Z,1.80
2023-03-24T05:58:00.309Z,1.90
2023-03-24T06:00:38.115Z,2.43
2023-03-24T06:03:11.965Z,1.50
2023-03-24T06:05:43.020Z,2.10
2023-03-24T06:08:11.757Z,1.43
2023-03-24T06:10:39.487Z,2.20
2023-03-24T06:13:06.635Z,2.43
2023-03-24T06:15:34.670Z,1.70
2023-03-24T06:18:21.740Z,1.30
2023-03-24T06:20:49.801Z,1.60
2023-03-24T06:23:29.311Z,1.97
2023-03-24T06:26:22.606Z,1.40
2023-03-24T06:28:55.535Z,1.97
2023-03-24T06:31:24.333Z,1.67
2023-03-24T06:33:53.209Z,1.77
2023-03-24T06:36:20.337Z,1.90
2023-03-24T06:38:50.409Z,1.60
2023-03-24T06:41:20.061Z,1.67
2023-03-24T06:43:51.148Z,1.93
2023-03-24T06:46:18.468Z,1.50
2023-03-24T06:48:46.602Z,1.80
2023-03-24T06:51:13.719Z,2.07
2023-03-24T06:53:41.467Z,2.67
2023-03-24T06:56:10.230Z,2.43
2023-03-24T06:58:44.299Z,1.83
2023-03-24T07:01:25.940Z,2.00
2023-03-24T07:03:53.076Z,1.90
2023-03-24T07:06:43.138Z,2.00
2023-03-24T07:09:17.592Z,3.37
2023-03-24T07:11:46.065Z,2.33
2023-03-24T07:14:13.951Z,1.90
2023-03-24T07:16:42.267Z,2.10
2023-03-24T07:19:35.337Z,1.90
2023-03-24T07:22:21.115Z,2.27
2023-03-24T07:25:13.958Z,2.77
2023-03-24T07:27:49.962Z,2.37
2023-03-24T07:30:20.549Z,2.87
2023-03-24T07:32:51.638Z,2.70
2023-03-24T07:35:18.939Z,2.57
2023-03-24T07:37:46.103Z,3.30
2023-03-24T07:40:14.577Z,3.00
2023-03-24T07:42:42.362Z,3.03
2023-03-24T07:45:29.122Z,3.10
2023-03-24T07:47:57.366Z,2.63
2023-03-24T07:50:24.562Z,2.63
2023-03-24T07:52:51.689Z,3.47
2023-03-24T07:55:20.850Z,4.00
2023-03-24T07:57:54.430Z,3.47
2023-03-24T08:00:23.457Z,3.70
2023-03-24T08:03:05.610Z,3.43
2023-03-24T08:05:59.083Z,3.10
2023-03-24T08:08:39.170Z,3.83
2023-03-24T08:11:06.463Z,3.10
2023-03-24T08:13:33.670Z,3.50
2023-03-24T08:16:01.421Z,3.33
2023-03-24T08:18:29.872Z,3.53
2023-03-24T08:20:58.212Z,3.30
2023-03-24T08:23:25.574Z,3.60
2023-03-24T08:25:52.650Z,3.40
2023-03-24T08:28:19.764Z,3.73
2023-03-24T08:30:47.287Z,3.63
2023-03-24T08:33:15.168Z,4.30
2023-03-24T08:35:44.105Z,2.80
2023-03-24T08:38:11.287Z,3.00
2023-03-24T08:40:38.941Z,2.57
2023-03-24T08:43:07.040Z,3.53
2023-03-24T08:45:34.125Z,3.77
2023-03-24T08:48:02.534Z,2.63
2023-03-24T08:50:31.013Z,2.83
2023-03-24T08:52:59.490Z,3.10
2023-03-24T08:55:26.826Z,2.90
2023-03-24T08:57:54.162Z,2.90
2023-03-24T09:00:21.634Z,2.83
2023-03-24T09:02:49.532Z,2.53
2023-03-24T09:05:17.302Z,3.67
2023-03-24T09:07:44.475Z,2.97
2023-03-24T09:10:13.433Z,3.00
2023-03-24T09:12:41.014Z,2.33
2023-03-24T09:15:08.748Z,3.30
2023-03-24T09:17:37.702Z,2.60
2023-03-24T09:20:06.637Z,3.13
2023-03-24T09:22:33.812Z,3.17
2023-03-24T09:25:00.949Z,3.13
2023-03-24T09:27:30.794Z,2.90
2023-03-24T09:29:59.747Z,2.60
2023-03-24T09:32:26.923Z,3.80
2023-03-24T09:34:54.137Z,3.07
2023-03-24T09:37:21.266Z,2.90
2023-03-24T09:39:48.361Z,3.80
2023-03-24T09:42:17.229Z,2.97
2023-03-24T09:44:48.089Z,3.13
2023-03-24T09:47:19.968Z,3.93
2023-03-24T09:49:47.160Z,4.07
2023-03-24T09:52:15.402Z,3.10
2023-03-24T09:54:45.245Z,3.27
2023-03-24T09:57:17.067Z,3.33
2023-03-24T09:59:45.598Z,3.50
2023-03-24T10:02:13.395Z,3.47
2023-03-24T10:04:40.733Z,3.67
2023-03-24T10:07:10.098Z,2.63
2023-03-24T10:09:37.507Z,2.67
2023-03-24T10:12:13.874Z,3.63
2023-03-24T10:14:51.666Z,3.90
2023-03-24T10:17:21.901Z,2.83
2023-03-24T10:19:50.702Z,3.00
2023-03-24T10:22:22.173Z,3.30
2023-03-24T10:24:51.518Z,3.30
2023-03-24T10:27:24.608Z,6.73
2023-03-24T10:29:55.545Z,2.70
2023-03-24T10:32:24.431Z,2.70
2023-03-24T10:34:55.142Z,2.83
2023-03-24T10:37:22.544Z,2.97
2023-03-24T10:39:49.794Z,3.13
2023-03-24T10:42:18.392Z,2.90
2023-03-24T10:44:47.134Z,3.03
2023-03-24T10:47:24.954Z,3.00
2023-03-24T10:49:53.304Z,2.80
2023-03-24T10:52:20.397Z,2.53
2023-03-24T10:54:54.161Z,2.57
2023-03-24T10:57:23.148Z,2.93
2023-03-24T10:59:53.397Z,2.40
2023-03-24T11:02:23.161Z,2.40
2023-03-24T11:04:53.167Z,2.20
2023-03-24T11:07:21.209Z,2.90
2023-03-24T11:09:56.616Z,1.93
2023-03-24T11:12:25.160Z,2.20
2023-03-24T11:14:52.290Z,1.80
2023-03-24T11:17:21.144Z,1.97
2023-03-24T11:19:52.911Z,2.27
2023-03-24T11:22:20.142Z,2.37
2023-03-24T11:24:48.640Z,2.13
2023-03-24T11:27:16.026Z,2.20
2023-03-24T11:29:43.549Z,2.70
2023-03-24T11:32:13.168Z,2.23
2023-03-24T11:34:41.437Z,2.70
2023-03-24T11:37:12.666Z,2.53
2023-03-24T11:39:39.786Z,2.90
2023-03-24T11:42:14.574Z,1.97
2023-03-24T11:44:46.195Z,1.87
2023-03-24T11:47:16.395Z,1.80
2023-03-24T11:49:45.457Z,2.10
2023-03-24T11:52:19.807Z,2.00
2023-03-24T11:54:46.972Z,2.27
2023-03-24T11:57:15.099Z,1.80
2023-03-24T11:59:46.058Z,2.50
2023-03-24T12:02:19.036Z,2.47
2023-03-24T12:04:51.542Z,2.30
2023-03-24T12:07:35.268Z,2.10
2023-03-24T12:10:08.003Z,2.33
2023-03-24T12:12:38.660Z,1.93
2023-03-24T12:15:28.114Z,2.50
2023-03-24T12:18:00.503Z,2.87
2023-03-24T12:20:30.931Z,3.13
2023-03-24T12:23:04.282Z,2.30
2023-03-24T12:25:46.598Z,2.20
2023-03-24T12:28:20.444Z,3.13
2023-03-24T12:30:51.640Z,2.10
2023-03-24T12:33:29.802Z,3.03
2023-03-24T12:36:04.780Z,2.40
2023-03-24T12:38:39.335Z,2.43
2023-03-24T12:41:25.213Z,2.43
2023-03-24T12:44:02.642Z,2.43
2023-03-24T12:46:46.656Z,2.30
2023-03-24T12:49:20.854Z,2.03
2023-03-24T12:51:52.211Z,2.40
2023-03-24T12:54:25.269Z,2.90
2023-03-24T12:56:55.649Z,4.00
2023-03-24T12:59:24.366Z,2.70
2023-03-24T13:01:53.257Z,1.93
2023-03-24T13:04:22.910Z,1.97
2023-03-24T13:06:51.153Z,2.07
2023-03-24T13:09:22.312Z,2.50
2023-03-24T13:11:54.294Z,1.90
2023-03-24T13:14:23.155Z,2.37
2023-03-24T13:16:50.552Z,2.50
2023-03-24T13:19:20.463Z,2.50
2023-03-24T13:21:48.445Z,2.83
2023-03-24T13:24:18.013Z,2.03
2023-03-24T13:26:48.639Z,2.13
2023-03-24T13:29:24.663Z,1.90
2023-03-24T13:31:53.744Z,2.20
2023-03-24T13:34:26.683Z,1.93
2023-03-24T13:36:55.562Z,2.30
2023-03-24T13:39:23.881Z,2.10
2023-03-24T13:41:52.452Z,2.07
2023-03-24T13:44:23.009Z,2.17
2023-03-24T13:47:01.042Z,1.50
2023-03-24T13:49:28.265Z,1.70
2023-03-24T13:51:55.433Z,1.90
2023-03-24T13:54:23.446Z,1.67
2023-03-24T13:56:56.792Z,1.63
2023-03-24T13:59:27.047Z,1.83
2023-03-24T14:02:11.882Z,1.83
2023-03-24T14:04:46.243Z,2.13
2023-03-24T14:07:43.725Z,1.63
2023-03-24T14:10:28.314Z,1.73
2023-03-24T14:12:56.235Z,1.40
2023-03-24T14:15:26.941Z,1.07
2023-03-24T14:17:55.498Z,1.47
2023-03-24T14:20:27.101Z,1.30
2023-03-24T14:22:54.796Z,1.90
2023-03-24T14:25:24.430Z,1.40
2023-03-24T14:27:52.987Z,1.80
2023-03-24T14:30:21.644Z,1.47
2023-03-24T14:32:51.548Z,2.10
2023-03-24T14:35:24.529Z,1.90
2023-03-24T14:37:53.437Z,2.10
2023-03-24T14:40:29.518Z,1.90
2023-03-24T14:42:58.003Z,2.20
2023-03-24T14:45:43.953Z,1.50
2023-03-24T14:48:24.000Z,1.20
2023-03-24T14:50:53.489Z,1.53
2023-03-24T14:53:21.399Z,1.60
2023-03-24T14:55:48.837Z,1.50
2023-03-24T14:58:21.217Z,1.27
2023-03-24T15:01:04.375Z,1.13
2023-03-24T15:03:37.583Z,1.60
2023-03-24T15:06:12.083Z,2.10
2023-03-24T15:08:39.189Z,1.60
2023-03-24T15:11:07.717Z,1.83
2023-03-24T15:13:36.144Z,1.63
2023-03-24T15:16:04.860Z,2.13
2023-03-24T15:18:31.953Z,2.00
2023-03-24T15:21:00.404Z,2.17
2023-03-24T15:23:28.492Z,2.03
2023-03-24T15:25:56.278Z,1.87
2023-03-24T15:28:25.549Z,1.77
2023-03-24T15:30:52.981Z,1.83
2023-03-24T15:33:20.174Z,1.70
2023-03-24T15:35:47.367Z,1.43
2023-03-24T15:38:28.253Z,1.40
2023-03-24T15:40:58.553Z,2.37
2023-03-24T15:43:25.738Z,1.93
2023-03-24T15:46:04.751Z,2.20
2023-03-24T15:48:36.646Z,2.10
2023-03-24T15:51:04.292Z,2.40
2023-03-24T15:53:39.433Z,1.70
2023-03-24T15:56:07.942Z,1.53
2023-03-24T15:58:48.742Z,1.13
2023-03-24T16:01:17.762Z,1.67
2023-03-24T16:03:46.151Z,1.50
2023-03-24T16:06:13.814Z,1.10
2023-03-24T16:08:42.972Z,1.50
2023-03-24T16:11:12.817Z,1.30
2023-03-24T16:13:40.848Z,1.40
2023-03-24T16:16:11.371Z,1.50
2023-03-24T16:18:39.428Z,1.40
2023-03-24T16:21:12.021Z,1.70
2023-03-24T16:23:39.093Z,1.43
2023-03-24T16:26:09.922Z,1.60
2023-03-24T16:28:36.983Z,1.10
2023-03-24T16:31:05.238Z,1.20
2023-03-24T16:33:32.446Z,1.00
2023-03-24T16:35:59.620Z,1.63
2023-03-24T16:38:26.863Z,1.17
2023-03-24T16:40:54.604Z,1.57
2023-03-24T16:43:23.086Z,1.07
2023-03-24T16:45:50.686Z,1.30
2023-03-24T16:48:17.975Z,1.60
2023-03-24T16:50:46.044Z,1.10
2023-03-24T16:53:13.235Z,1.20
2023-03-24T16:55:40.929Z,1.10
2023-03-24T16:58:08.880Z,1.00
2023-03-24T17:00:37.493Z,1.20
2023-03-24T17:03:05.021Z,1.33
2023-03-24T17:08:21.517Z,1.57
2023-03-24T17:10:49.938Z,1.27
2023-03-24T17:13:18.616Z,1.00
2023-03-24T17:15:47.084Z,1.00
2023-03-24T17:18:14.532Z,1.23
2023-03-24T17:20:41.698Z,1.50
2023-03-24T17:23:09.901Z,1.20
2023-03-24T17:25:37.094Z,1.10
2023-03-24T17:28:04.195Z,1.37
2023-03-24T17:30:31.281Z,1.13
2023-03-24T17:32:59.769Z,1.27
2023-03-24T17:35:26.926Z,1.00
2023-03-24T17:37:54.055Z,1.27
2023-03-24T17:40:21.457Z,1.10
2023-03-24T17:42:48.710Z,0.90
2023-03-24T17:45:16.810Z,1.73
2023-03-24T17:47:44.129Z,1.50
2023-03-24T17:50:13.125Z,1.00
2023-03-24T17:52:41.157Z,1.20
2023-03-24T17:55:08.560Z,1.37
2023-03-24T17:57:35.711Z,1.90
2023-03-24T18:00:02.881Z,1.50
2023-03-24T18:02:34.902Z,1.73
2023-03-24T18:05:01.969Z,2.27
2023-03-24T18:07:30.402Z,1.50
2023-03-24T18:09:57.522Z,1.40
2023-03-24T18:12:24.597Z,1.50
2023-03-24T18:14:51.690Z,1.70
2023-03-24T18:17:19.135Z,1.97
2023-03-24T18:19:46.293Z,1.60
2023-03-24T18:22:13.387Z,1.70
2023-03-24T18:24:41.846Z,1.67
2023-03-24T18:27:08.909Z,2.37
2023-03-24T18:29:36.215Z,2.00
2023-03-24T18:32:03.392Z,2.07
2023-03-24T18:34:30.837Z,1.93
2023-03-24T18:36:58.011Z,1.77
2023-03-24T18:39:25.125Z,1.70
2023-03-24T18:41:53.709Z,1.83
2023-03-24T18:44:21.502Z,2.07
2023-03-24T18:46:48.702Z,2.77
2023-03-24T18:49:15.768Z,2.30
2023-03-24T18:51:43.074Z,1.60
2023-03-24T18:54:10.567Z,2.20
2023-03-24T18:56:37.690Z,2.03
2023-03-24T18:59:06.140Z,2.17
2023-03-24T19:01:33.442Z,1.73
2023-03-24T19:04:00.631Z,2.30
2023-03-24T19:06:27.754Z,1.90
2023-03-24T19:08:54.888Z,1.60
2023-03-24T19:11:22.071Z,1.60
2023-03-24T19:13:49.642Z,1.73
2023-03-24T19:16:18.769Z,1.93
2023-03-24T19:18:45.884Z,1.70
2023-03-24T19:21:13.253Z,1.70
2023-03-24T19:23:40.323Z,2.37
2023-03-24T19:26:07.429Z,1.80
2023-03-24T19:28:36.941Z,2.00
2023-03-24T19:31:07.086Z,1.70
2023-03-24T19:33:35.555Z,1.70
2023-03-24T19:36:02.704Z,1.70
2023-03-24T19:38:29.871Z,1.97
2023-03-24T19:40:57.026Z,2.23
2023-03-24T19:43:24.836Z,1.90
2023-03-24T19:45:52.126Z,1.60
2023-03-24T19:48:19.551Z,2.20
2023-03-24T19:50:50.252Z,1.80
2023-03-24T19:53:17.401Z,2.00
2023-03-24T19:55:44.552Z,1.90
2023-03-24T19:58:11.631Z,2.10
2023-03-24T20:00:38.817Z,1.83
2023-03-24T20:03:06.351Z,1.90
2023-03-24T20:05:33.472Z,2.20
2023-03-24T20:08:01.985Z,3.93
2023-03-24T20:10:29.151Z,1.80
2023-03-24T20:12:56.294Z,1.97
2023-03-24T20:15:23.476Z,1.60
2023-03-24T20:17:50.610Z,1.90
2023-03-24T20:20:17.860Z,1.80
2023-03-24T20:22:44.952Z,1.70
2023-03-24T20:25:14.758Z,1.77
2023-03-24T20:27:41.961Z,1.90
2023-03-24T20:30:09.359Z,2.10
2023-03-24T20:32:36.543Z,1.97
2023-03-24T20:35:03.811Z,2.13
2023-03-24T20:37:30.892Z,2.13
2023-03-24T20:39:57.972Z,1.97
2023-03-24T20:42:26.427Z,1.93
2023-03-24T20:44:53.514Z,1.70
2023-03-24T20:47:20.645Z,1.83
2023-03-24T20:49:47.751Z,1.70
2023-03-24T20:52:14.874Z,2.30
2023-03-24T20:54:42.097Z,2.17
2023-03-24T20:57:09.620Z,2.10
2023-03-24T20:59:38.138Z,3.00
2023-03-24T21:02:05.398Z,1.90
2023-03-24T21:04:32.848Z,1.97
2023-03-24T21:06:59.981Z,2.30
2023-03-24T21:09:27.094Z,1.60
2023-03-24T21:11:54.270Z,1.60
2023-03-24T21:14:21.387Z,1.50
2023-03-24T21:16:49.933Z,1.30
2023-03-24T21:19:17.552Z,1.37
2023-03-24T21:21:44.676Z,1.30
2023-03-24T21:24:11.781Z,1.30
2023-03-24T21:26:38.855Z,1.30
2023-03-24T21:29:05.942Z,1.80
2023-03-24T21:31:33.048Z,1.37
2023-03-24T21:34:01.475Z,1.10
2023-03-24T21:36:28.587Z,1.50
2023-03-24T21:38:55.775Z,1.20
2023-03-24T21:41:22.854Z,1.00
2023-03-24T21:43:50.181Z,1.30
2023-03-24T21:46:17.278Z,1.03
2023-03-24T21:48:44.438Z,1.03
2023-03-24T21:51:12.928Z,1.00
2023-03-24T21:53:40.005Z,1.43
2023-03-24T21:56:07.529Z,1.20
2023-03-24T21:58:34.657Z,0.80
2023-03-24T22:01:01.798Z,1.03
2023-03-24T22:03:28.910Z,1.03
2023-03-24T22:05:57.080Z,1.30
2023-03-24T22:08:25.528Z,1.00
2023-03-24T22:10:54.720Z,1.10
2023-03-24T22:13:21.828Z,1.23
2023-03-24T22:15:52.522Z,1.30
2023-03-24T22:18:19.668Z,1.10
2023-03-24T22:20:52.399Z,1.30
2023-03-24T22:23:19.474Z,1.17
2023-03-24T22:25:48.145Z,1.20
2023-03-24T22:28:15.428Z,1.13
2023-03-24T22:30:42.532Z,0.93
2023-03-24T22:33:09.649Z,1.47
2023-03-24T22:35:38.164Z,1.20
2023-03-24T22:38:05.312Z,1.40
2023-03-24T22:40:32.362Z,1.27
2023-03-24T22:43:00.824Z,1.40
2023-03-24T22:45:27.932Z,1.30
2023-03-24T22:47:55.049Z,1.40
2023-03-24T22:50:22.151Z,1.20
2023-03-24T22:52:49.239Z,1.87
2023-03-24T22:55:16.395Z,1.27
2023-03-24T22:57:43.516Z,1.50
2023-03-24T23:00:12.550Z,1.20
2023-03-24T23:02:39.658Z,1.03
2023-03-24T23:05:06.953Z,1.03
2023-03-24T23:07:34.099Z,1.30
2023-03-24T23:10:01.193Z,1.00
2023-03-24T23:12:28.263Z,1.30
2023-03-24T23:14:55.372Z,1.27
2023-03-24T23:17:23.874Z,1.10
2023-03-24T23:19:51.124Z,1.47
2023-03-24T23:22:18.243Z,1.10
2023-03-24T23:24:45.372Z,1.23
2023-03-24T23:27:12.557Z,1.70
2023-03-24T23:29:40.148Z,1.37
2023-03-24T23:32:07.347Z,1.30
2023-03-24T23:34:36.372Z,1.40
2023-03-24T23:37:03.457Z,1.70
2023-03-24T23:39:30.672Z,1.27
2023-03-24T23:41:57.809Z,1.70
2023-03-24T23:44:24.939Z,1.83
2023-03-24T23:46:52.064Z,1.20
2023-03-24T23:49:19.168Z,1.10
2023-03-24T23:51:47.584Z,1.00
2023-03-24T23:54:14.724Z,1.30
2023-03-24T23:56:41.902Z,1.10
2023-03-24T23:59:09.227Z,1.27
